createdAt,value
2022-12-07T00:01:08.270Z,68.90
2022-12-07T00:03:35.550Z,68.80
2022-12-07T00:06:04.050Z,68.90
2022-12-07T00:08:31.795Z,69.00
2022-12-07T00:11:16.957Z,69.00
2022-12-07T00:13:44.413Z,69.00
2022-12-07T00:16:15.162Z,69.00
2022-12-07T00:18:42.859Z,69.00
2022-12-07T00:21:15.204Z,67.10
2022-12-07T00:23:43.451Z,68.90
2022-12-07T00:26:14.420Z,68.80
2022-12-07T00:28:41.951Z,69.10
2022-12-07T00:31:11.413Z,68.70
2022-12-07T00:33:39.402Z,68.70
2022-12-07T00:36:09.017Z,68.70
2022-12-07T00:38:37.899Z,68.70
2022-12-07T00:41:11.484Z,68.70
2022-12-07T00:43:39.145Z,68.70
2022-12-07T00:46:06.591Z,68.60
2022-12-07T00:48:33.870Z,68.70
2022-12-07T00:51:01.279Z,68.70
2022-12-07T00:53:29.095Z,69.40
2022-12-07T00:55:57.138Z,69.40
2022-12-07T00:58:24.960Z,68.50
2022-12-07T01:00:51.955Z,68.60
2022-12-07T01:03:19.192Z,69.40
2022-12-07T01:05:56.832Z,66.20
2022-12-07T01:08:24.881Z,68.50
2022-12-07T01:11:01.746Z,68.60
2022-12-07T01:13:29.372Z,68.50
2022-12-07T01:16:00.836Z,68.40
2022-12-07T01:18:29.016Z,68.30
2022-12-07T01:21:04.184Z,68.40
2022-12-07T01:23:31.761Z,68.40
2022-12-07T01:26:00.117Z,68.50
2022-12-07T01:28:27.707Z,68.40
2022-12-07T01:31:02.619Z,68.50
2022-12-07T01:33:32.443Z,68.50
2022-12-07T01:36:30.730Z,68.70
2022-12-07T01:39:03.794Z,68.60
2022-12-07T01:41:33.135Z,68.50
2022-12-07T01:44:18.111Z,68.50
2022-12-07T01:46:47.741Z,68.40
2022-12-07T01:49:22.914Z,68.60
2022-12-07T01:51:52.433Z,68.50
2022-12-07T01:54:21.324Z,69.10
2022-12-07T01:56:55.857Z,68.80
2022-12-07T01:59:25.905Z,68.50
2022-12-07T02:01:54.733Z,68.70
2022-12-07T02:04:23.480Z,68.60
2022-12-07T02:06:52.310Z,68.60
2022-12-07T02:09:19.149Z,69.20
2022-12-07T02:11:46.117Z,68.70
2022-12-07T02:14:12.946Z,68.60
2022-12-07T02:16:55.034Z,68.90
2022-12-07T02:19:46.443Z,69.00
2022-12-07T02:22:30.070Z,69.00
2022-12-07T02:25:29.252Z,69.70
2022-12-07T02:28:04.858Z,69.00
2022-12-07T02:30:36.892Z,69.00
2022-12-07T02:33:09.825Z,68.80
2022-12-07T02:35:47.518Z,68.90
2022-12-07T02:38:32.125Z,68.70
2022-12-07T02:41:07.070Z,68.70
2022-12-07T02:43:58.189Z,68.70
2022-12-07T02:46:31.649Z,68.70
2022-12-07T02:49:00.577Z,68.90
2022-12-07T02:51:32.134Z,69.00
2022-12-07T02:53:59.405Z,69.00
2022-12-07T02:56:29.161Z,69.20
2022-12-07T02:59:10.529Z,69.10
2022-12-07T03:01:49.423Z,69.10
2022-12-07T03:04:25.142Z,69.20
2022-12-07T03:08:03.749Z,68.50
2022-12-07T03:10:54.249Z,69.00
2022-12-07T03:13:34.543Z,68.90
2022-12-07T03:16:04.298Z,68.90
2022-12-07T03:18:36.455Z,69.10
2022-12-07T03:21:10.799Z,69.30
2022-12-07T03:23:39.659Z,69.40
2022-12-07T03:26:09.734Z,69.40
2022-12-07T03:28:40.692Z,69.40
2022-12-07T03:31:24.884Z,69.40
2022-12-07T03:34:01.242Z,69.60
2022-12-07T03:36:44.637Z,69.70
2022-12-07T03:39:26.516Z,69.80
2022-12-07T03:41:54.015Z,69.90
2022-12-07T03:44:21.882Z,69.80
2022-12-07T03:47:16.875Z,69.80
2022-12-07T03:50:06.512Z,70.20
2022-12-07T03:52:48.366Z,70.00
2022-12-07T03:55:30.062Z,70.20
2022-12-07T03:58:04.864Z,70.40
2022-12-07T04:00:32.239Z,70.20
2022-12-07T04:02:59.405Z,70.30
2022-12-07T04:05:27.025Z,70.40
2022-12-07T04:07:53.872Z,70.30
2022-12-07T04:10:21.042Z,70.30
2022-12-07T04:12:47.837Z,70.50
2022-12-07T04:15:14.710Z,70.30
2022-12-07T04:17:41.568Z,70.10
2022-12-07T04:20:09.268Z,70.20
2022-12-07T04:22:36.251Z,70.10
2022-12-07T04:25:03.228Z,70.10
2022-12-07T04:27:30.100Z,70.10
2022-12-07T04:29:57.077Z,70.10
2022-12-07T04:32:24.921Z,70.30
2022-12-07T04:34:55.646Z,70.10
2022-12-07T04:37:23.858Z,70.10
2022-12-07T04:39:51.028Z,70.10
2022-12-07T04:42:17.898Z,70.10
2022-12-07T04:44:45.638Z,70.10
2022-12-07T04:47:12.740Z,70.20
2022-12-07T04:49:39.612Z,70.20
2022-12-07T04:52:06.441Z,70.30
2022-12-07T04:54:33.260Z,70.10
2022-12-07T04:57:00.204Z,70.40
2022-12-07T04:59:27.101Z,70.30
2022-12-07T05:01:54.082Z,70.40
2022-12-07T05:04:21.092Z,70.30
2022-12-07T05:06:47.911Z,70.40
2022-12-07T05:09:14.751Z,70.50
2022-12-07T05:11:41.926Z,70.50
2022-12-07T05:14:20.648Z,70.50
2022-12-07T05:16:50.567Z,70.50
2022-12-07T05:19:18.683Z,70.50
2022-12-07T05:21:45.564Z,70.60
2022-12-07T05:24:14.771Z,70.60
2022-12-07T05:26:42.212Z,70.70
2022-12-07T05:29:11.552Z,70.80
2022-12-07T05:31:38.383Z,70.70
2022-12-07T05:34:05.272Z,70.70
2022-12-07T05:36:32.836Z,70.60
2022-12-07T05:38:59.952Z,70.50
2022-12-07T05:41:45.865Z,70.50
2022-12-07T05:44:12.831Z,70.60
2022-12-07T05:46:39.752Z,70.70
2022-12-07T05:49:06.719Z,71.40
2022-12-07T05:51:33.588Z,71.80
2022-12-07T05:54:00.437Z,70.60
2022-12-07T05:56:28.087Z,70.70
2022-12-07T05:59:13.930Z,70.60
2022-12-07T06:01:41.328Z,70.70
2022-12-07T06:04:08.363Z,70.60
2022-12-07T06:06:35.415Z,70.80
2022-12-07T06:09:02.554Z,70.80
2022-12-07T06:11:48.177Z,70.80
2022-12-07T06:14:15.104Z,71.00
2022-12-07T06:16:43.915Z,70.80
2022-12-07T06:19:11.154Z,70.90
2022-12-07T06:21:38.036Z,70.80
2022-12-07T06:24:05.376Z,70.90
2022-12-07T06:26:32.248Z,71.00
2022-12-07T06:28:59.246Z,71.10
2022-12-07T06:31:26.160Z,71.10
2022-12-07T06:34:01.974Z,71.10
2022-12-07T06:36:29.468Z,71.30
2022-12-07T06:38:56.529Z,71.10
2022-12-07T06:41:23.821Z,71.10
2022-12-07T06:43:55.784Z,71.00
2022-12-07T06:46:23.853Z,71.20
2022-12-07T06:48:51.158Z,71.10
2022-12-07T06:51:18.226Z,71.20
2022-12-07T06:53:45.056Z,71.20
2022-12-07T06:56:11.968Z,71.20
2022-12-07T06:58:38.815Z,71.30
2022-12-07T07:01:11.286Z,71.40
2022-12-07T07:03:38.502Z,71.30
2022-12-07T07:06:06.951Z,71.20
2022-12-07T07:08:34.872Z,71.20
2022-12-07T07:11:01.895Z,71.20
2022-12-07T07:13:28.932Z,71.20
2022-12-07T07:15:56.169Z,71.20
2022-12-07T07:18:23.475Z,71.20
2022-12-07T07:20:52.093Z,71.20
2022-12-07T07:23:19.764Z,71.80
2022-12-07T07:25:47.074Z,71.10
2022-12-07T07:28:14.307Z,71.20
2022-12-07T07:30:41.401Z,71.20
2022-12-07T07:33:08.675Z,71.20
2022-12-07T07:35:35.586Z,72.00
2022-12-07T07:38:03.391Z,73.30
2022-12-07T07:40:30.943Z,71.30
2022-12-07T07:42:58.568Z,71.30
2022-12-07T07:45:27.356Z,71.40
2022-12-07T07:47:54.858Z,71.40
2022-12-07T07:50:22.125Z,71.40
2022-12-07T07:52:48.975Z,71.30
2022-12-07T07:55:18.509Z,71.30
2022-12-07T07:57:49.699Z,71.30
2022-12-07T08:00:20.290Z,71.30
2022-12-07T08:02:47.496Z,71.30
2022-12-07T08:05:15.066Z,71.30
2022-12-07T08:07:42.170Z,71.30
2022-12-07T08:10:12.066Z,71.40
2022-12-07T08:13:00.604Z,71.60
2022-12-07T08:15:31.876Z,71.60
2022-12-07T08:17:59.422Z,71.40
2022-12-07T08:20:26.554Z,71.30
2022-12-07T08:22:53.488Z,71.30
2022-12-07T08:25:21.772Z,71.40
2022-12-07T08:27:48.840Z,71.30
2022-12-07T08:30:16.056Z,71.20
2022-12-07T08:32:43.159Z,71.20
2022-12-07T08:35:10.399Z,71.20
2022-12-07T08:37:37.422Z,71.20
2022-12-07T08:40:06.302Z,71.10
2022-12-07T08:42:38.839Z,71.20
2022-12-07T08:45:11.141Z,71.30
2022-12-07T08:47:42.702Z,71.40
2022-12-07T08:50:11.422Z,71.30
2022-12-07T08:52:38.789Z,71.20
2022-12-07T08:55:06.993Z,71.50
2022-12-07T08:57:35.555Z,71.40
2022-12-07T09:00:03.487Z,71.30
2022-12-07T09:02:32.234Z,71.20
2022-12-07T09:04:59.106Z,71.20
2022-12-07T09:07:27.299Z,71.50
2022-12-07T09:09:54.252Z,71.40
2022-12-07T09:12:21.087Z,71.20
2022-12-07T09:14:47.919Z,71.20
2022-12-07T09:17:14.867Z,72.60
2022-12-07T09:19:43.354Z,71.30
2022-12-07T09:22:10.494Z,71.30
2022-12-07T09:24:37.642Z,71.30
2022-12-07T09:27:04.472Z,71.40
2022-12-07T09:29:31.324Z,71.40
2022-12-07T09:31:58.382Z,71.50
2022-12-07T09:34:25.320Z,71.40
2022-12-07T09:36:52.144Z,71.30
2022-12-07T09:39:18.943Z,71.30
2022-12-07T09:41:46.794Z,71.30
2022-12-07T09:44:27.766Z,71.30
2022-12-07T09:46:54.837Z,71.50
2022-12-07T09:49:25.050Z,71.50
2022-12-07T09:52:30.253Z,71.40
2022-12-07T09:54:58.981Z,71.30
2022-12-07T09:57:32.622Z,71.40
2022-12-07T10:00:04.715Z,71.40
2022-12-07T10:02:54.206Z,71.30
2022-12-07T10:05:41.166Z,71.20
2022-12-07T10:08:11.980Z,71.10
2022-12-07T10:10:40.884Z,71.30
2022-12-07T10:13:13.627Z,71.20
2022-12-07T10:16:03.398Z,71.20
2022-12-07T10:18:39.301Z,71.00
2022-12-07T10:21:09.983Z,70.90
2022-12-07T10:23:39.605Z,70.90
2022-12-07T10:26:35.888Z,70.90
2022-12-07T10:29:23.771Z,70.90
2022-12-07T10:32:02.132Z,70.70
2022-12-07T10:34:41.662Z,70.50
2022-12-07T10:37:16.388Z,70.60
2022-12-07T10:39:52.316Z,70.60
2022-12-07T10:42:24.585Z,70.60
2022-12-07T10:45:15.649Z,70.60
2022-12-07T10:48:12.924Z,70.20
2022-12-07T10:51:01.254Z,70.50
2022-12-07T10:53:54.067Z,70.40
2022-12-07T10:56:51.240Z,70.40
2022-12-07T10:59:22.574Z,70.50
2022-12-07T11:02:02.646Z,70.60
2022-12-07T11:05:11.511Z,70.60
2022-12-07T11:07:57.447Z,70.50
2022-12-07T11:10:35.925Z,70.70
2022-12-07T11:13:34.901Z,70.80
2022-12-07T11:16:33.385Z,70.70
2022-12-07T11:19:02.984Z,70.50
2022-12-07T11:21:44.843Z,70.80
2022-12-07T11:24:18.085Z,70.80
2022-12-07T11:27:03.480Z,70.70
2022-12-07T11:29:48.074Z,70.80
2022-12-07T11:32:38.867Z,70.70
2022-12-07T11:35:39.509Z,70.80
2022-12-07T11:38:15.688Z,70.40
2022-12-07T11:40:47.348Z,70.40
2022-12-07T11:43:43.302Z,70.40
2022-12-07T11:46:14.527Z,70.00
2022-12-07T11:49:11.367Z,69.90
2022-12-07T11:51:40.444Z,69.60
2022-12-07T11:54:17.389Z,69.70
2022-12-07T11:56:46.886Z,69.50
2022-12-07T11:59:36.396Z,70.30
2022-12-07T12:02:03.464Z,69.50
2022-12-07T12:04:48.758Z,69.60
2022-12-07T12:10:32.326Z,69.20
2022-12-07T12:16:21.836Z,68.90
2022-12-07T12:19:04.699Z,68.90
2022-12-07T12:21:33.285Z,69.00
2022-12-07T12:24:21.752Z,69.00
2022-12-07T12:27:03.816Z,68.80
2022-12-07T12:29:42.947Z,70.00
2022-12-07T12:32:23.033Z,68.90
2022-12-07T12:34:59.315Z,69.20
2022-12-07T12:37:35.251Z,69.10
2022-12-07T12:40:39.365Z,69.20
2022-12-07T12:43:43.408Z,68.90
2022-12-07T12:46:35.969Z,68.70
2022-12-07T12:49:45.362Z,68.70
2022-12-07T12:52:15.388Z,68.70
2022-12-07T12:55:08.556Z,68.70
2022-12-07T12:57:36.743Z,68.50
2022-12-07T13:00:22.941Z,68.70
2022-12-07T13:02:54.299Z,68.70
2022-12-07T13:05:22.371Z,68.70
2022-12-07T13:08:00.246Z,68.80
2022-12-07T13:10:33.660Z,68.90
2022-12-07T13:13:12.531Z,69.00
2022-12-07T13:16:16.415Z,68.60
2022-12-07T13:18:43.428Z,68.60
2022-12-07T13:21:10.206Z,68.70
2022-12-07T13:23:44.394Z,69.10
2022-12-07T13:26:35.526Z,68.80
2022-12-07T13:29:11.296Z,68.30
2022-12-07T13:31:51.990Z,68.40
2022-12-07T13:34:42.834Z,68.60
2022-12-07T13:37:22.266Z,68.80
2022-12-07T13:39:58.504Z,69.20
2022-12-07T13:42:29.828Z,69.50
2022-12-07T13:44:58.924Z,69.70
2022-12-07T13:47:31.459Z,69.80
2022-12-07T13:49:58.824Z,70.10
2022-12-07T13:52:28.340Z,70.20
2022-12-07T13:55:05.542Z,71.00
2022-12-07T13:57:35.996Z,71.00
2022-12-07T14:00:05.201Z,71.20
2022-12-07T14:02:36.398Z,71.20
2022-12-07T14:05:14.907Z,71.10
2022-12-07T14:08:00.324Z,70.90
2022-12-07T14:10:39.714Z,70.70
2022-12-07T14:13:25.511Z,70.20
2022-12-07T14:15:53.299Z,70.20
2022-12-07T14:18:31.799Z,70.00
2022-12-07T14:21:10.734Z,70.00
2022-12-07T14:23:39.939Z,69.50
2022-12-07T14:26:14.145Z,69.50
2022-12-07T14:28:42.619Z,69.50
2022-12-07T14:31:22.677Z,69.60
2022-12-07T14:33:51.995Z,69.60
2022-12-07T14:36:18.894Z,69.20
2022-12-07T14:38:45.833Z,69.10
2022-12-07T14:41:37.434Z,69.00
2022-12-07T14:44:32.345Z,68.70
2022-12-07T14:49:46.206Z,68.70
2022-12-07T14:55:24.942Z,68.80
2022-12-07T14:57:52.320Z,68.70
2022-12-07T15:00:21.605Z,68.70
2022-12-07T15:02:49.572Z,68.60
2022-12-07T15:05:17.590Z,68.60
2022-12-07T15:07:46.566Z,68.50
2022-12-07T15:10:24.470Z,68.40
2022-12-07T15:12:52.125Z,68.40
2022-12-07T15:15:19.086Z,68.40
2022-12-07T15:17:45.936Z,68.20
2022-12-07T15:20:15.423Z,68.10
2022-12-07T15:22:42.270Z,68.00
2022-12-07T15:25:10.046Z,68.00
2022-12-07T15:27:36.903Z,68.00
2022-12-07T15:30:04.738Z,68.00
2022-12-07T15:32:31.657Z,68.00
2022-12-07T15:34:58.596Z,67.90
2022-12-07T15:37:25.475Z,68.00
2022-12-07T15:39:52.325Z,68.10
2022-12-07T15:42:19.146Z,68.10
2022-12-07T15:45:05.229Z,68.10
2022-12-07T15:47:34.552Z,68.10
2022-12-07T15:50:10.790Z,68.10
2022-12-07T15:52:37.689Z,68.10
2022-12-07T15:55:05.822Z,68.10
2022-12-07T15:57:37.954Z,68.00
2022-12-07T16:00:06.294Z,67.90
2022-12-07T16:02:38.197Z,67.80
2022-12-07T16:05:07.042Z,67.90
2022-12-07T16:07:33.903Z,68.10
2022-12-07T16:10:00.773Z,68.10
2022-12-07T16:12:27.688Z,68.10
2022-12-07T16:14:54.909Z,68.50
2022-12-07T16:17:21.703Z,68.20
2022-12-07T16:19:48.742Z,68.30
2022-12-07T16:22:15.648Z,68.20
2022-12-07T16:24:42.652Z,68.40
2022-12-07T16:27:09.665Z,68.40
2022-12-07T16:29:36.487Z,69.00
2022-12-07T16:32:03.403Z,68.60
2022-12-07T16:34:30.296Z,68.80
2022-12-07T16:37:05.525Z,70.60
2022-12-07T16:39:34.295Z,68.70
2022-12-07T16:42:01.225Z,68.70
2022-12-07T16:44:28.063Z,68.70
2022-12-07T16:46:55.054Z,68.80
2022-12-07T16:49:22.194Z,68.60
2022-12-07T16:52:08.729Z,68.60
2022-12-07T16:54:38.567Z,68.50
2022-12-07T16:57:05.660Z,68.60
2022-12-07T16:59:32.555Z,68.60
2022-12-07T17:01:59.573Z,68.90
2022-12-07T17:04:26.493Z,68.70
2022-12-07T17:06:53.609Z,68.80
2022-12-07T17:09:21.550Z,69.00
2022-12-07T17:11:49.169Z,69.10
2022-12-07T17:14:45.227Z,68.90
2022-12-07T17:17:12.085Z,68.90
2022-12-07T17:19:38.951Z,69.00
2022-12-07T17:22:06.273Z,69.00
2022-12-07T17:24:33.069Z,71.00
2022-12-07T17:26:59.869Z,68.90
2022-12-07T17:29:26.865Z,68.90
2022-12-07T17:31:54.700Z,69.60
2022-12-07T17:34:22.546Z,68.80
2022-12-07T17:36:51.763Z,68.70
2022-12-07T17:39:21.050Z,68.80
2022-12-07T17:42:07.321Z,69.30
2022-12-07T17:44:34.332Z,68.50
2022-12-07T17:47:03.818Z,69.20
2022-12-07T17:49:30.884Z,68.40
2022-12-07T17:52:16.749Z,68.20
2022-12-07T17:54:43.935Z,68.20
2022-12-07T17:57:10.784Z,68.20
2022-12-07T17:59:38.170Z,68.30
2022-12-07T18:02:05.428Z,68.20
2022-12-07T18:04:33.110Z,68.10
2022-12-07T18:06:59.904Z,68.00
2022-12-07T18:09:27.402Z,68.10
2022-12-07T18:11:54.264Z,68.10
2022-12-07T18:14:21.358Z,67.90
2022-12-07T18:16:49.876Z,67.90
2022-12-07T18:19:17.217Z,67.80
2022-12-07T18:21:45.161Z,67.80
2022-12-07T18:24:14.676Z,67.70
2022-12-07T18:26:43.204Z,67.70
2022-12-07T18:29:17.628Z,67.70
2022-12-07T18:31:46.894Z,67.70
2022-12-07T18:34:16.829Z,67.80
2022-12-07T18:36:46.247Z,67.60
2022-12-07T18:39:14.679Z,67.70
2022-12-07T18:41:42.389Z,67.50
2022-12-07T18:44:09.767Z,67.60
2022-12-07T18:46:37.366Z,67.60
2022-12-07T18:49:05.665Z,67.50
2022-12-07T18:51:33.006Z,67.60
2022-12-07T18:54:01.451Z,67.50
2022-12-07T18:56:29.368Z,67.50
2022-12-07T18:59:17.689Z,67.50
2022-12-07T19:01:49.167Z,67.50
2022-12-07T19:04:18.222Z,67.50
2022-12-07T19:06:47.556Z,67.50
2022-12-07T19:09:15.201Z,67.70
2022-12-07T19:11:52.062Z,67.60
2022-12-07T19:14:26.600Z,67.50
2022-12-07T19:16:56.572Z,65.80
2022-12-07T19:19:25.571Z,67.70
2022-12-07T19:21:52.424Z,67.60
2022-12-07T19:24:23.169Z,67.50
2022-12-07T19:26:51.294Z,67.40
2022-12-07T19:29:18.163Z,67.40
2022-12-07T19:31:45.369Z,67.30
2022-12-07T19:34:15.383Z,67.40
2022-12-07T19:36:42.599Z,67.50
2022-12-07T19:39:14.413Z,67.40
2022-12-07T19:41:43.897Z,67.50
2022-12-07T19:44:23.448Z,67.50
2022-12-07T19:46:51.182Z,67.50
2022-12-07T19:49:19.763Z,67.80
2022-12-07T19:51:50.153Z,67.50
2022-12-07T19:54:20.121Z,67.60
2022-12-07T19:56:47.914Z,67.70
2022-12-07T19:59:19.001Z,68.00
2022-12-07T20:01:46.160Z,67.90
2022-12-07T20:04:19.907Z,67.90
2022-12-07T20:06:48.960Z,67.90
2022-12-07T20:09:16.255Z,67.90
2022-12-07T20:12:01.786Z,67.90
2022-12-07T20:14:29.618Z,67.90
2022-12-07T20:16:56.787Z,67.90
2022-12-07T20:19:24.325Z,67.80
2022-12-07T20:21:51.639Z,67.80
2022-12-07T20:24:21.948Z,67.70
2022-12-07T20:26:51.077Z,67.70
2022-12-07T20:29:20.979Z,67.80
2022-12-07T20:31:49.261Z,67.80
2022-12-07T20:34:16.424Z,67.80
2022-12-07T20:36:43.472Z,67.80
2022-12-07T20:39:11.152Z,67.70
2022-12-07T20:41:58.034Z,67.70
2022-12-07T20:44:24.940Z,67.60
2022-12-07T20:46:51.839Z,66.30
2022-12-07T20:49:18.855Z,67.80
2022-12-07T20:51:46.561Z,67.80
2022-12-07T20:54:14.745Z,67.90
2022-12-07T20:56:41.623Z,67.90
2022-12-07T20:59:12.007Z,67.80
2022-12-07T21:01:39.899Z,67.70
2022-12-07T21:04:06.960Z,67.90
2022-12-07T21:06:33.847Z,67.80
2022-12-07T21:09:01.519Z,67.80
2022-12-07T21:11:30.417Z,67.90
2022-12-07T21:13:58.034Z,67.80
2022-12-07T21:16:27.491Z,67.80
2022-12-07T21:18:55.957Z,67.70
2022-12-07T21:21:23.115Z,67.70
2022-12-07T21:23:54.518Z,67.70
2022-12-07T21:26:26.690Z,67.80
2022-12-07T21:28:53.913Z,67.70
2022-12-07T21:31:21.192Z,67.80
2022-12-07T21:33:48.548Z,67.90
2022-12-07T21:36:18.564Z,67.90
2022-12-07T21:38:45.594Z,68.00
2022-12-07T21:41:24.447Z,68.00
2022-12-07T21:43:51.742Z,68.00
2022-12-07T21:46:19.958Z,68.00
2022-12-07T21:48:51.663Z,68.00
2022-12-07T21:51:21.008Z,68.90
2022-12-07T21:53:49.343Z,68.00
2022-12-07T21:56:28.192Z,68.00
2022-12-07T21:59:00.342Z,67.90
2022-12-07T22:01:30.334Z,68.00
2022-12-07T22:03:58.716Z,68.00
2022-12-07T22:06:26.710Z,68.00
2022-12-07T22:08:54.350Z,67.90
2022-12-07T22:11:21.523Z,68.10
2022-12-07T22:14:10.649Z,68.00
2022-12-07T22:16:39.154Z,68.00
2022-12-07T22:19:07.355Z,68.00
2022-12-07T22:21:35.115Z,68.30
2022-12-07T22:24:02.747Z,67.90
2022-12-07T22:26:29.644Z,67.90
2022-12-07T22:28:56.543Z,67.90
2022-12-07T22:31:23.793Z,67.90
2022-12-07T22:33:51.758Z,66.20
2022-12-07T22:36:19.377Z,67.90
2022-12-07T22:38:47.210Z,67.90
2022-12-07T22:41:19.592Z,67.70
2022-12-07T22:43:46.432Z,68.00
2022-12-07T22:46:13.239Z,67.80
2022-12-07T22:48:40.123Z,67.90
2022-12-07T22:51:07.029Z,68.00
2022-12-07T22:53:33.926Z,68.00
2022-12-07T22:56:00.752Z,68.10
2022-12-07T22:58:27.692Z,68.00
2022-12-07T23:00:55.283Z,68.00
2022-12-07T23:03:22.177Z,68.20
2022-12-07T23:05:49.682Z,68.00
2022-12-07T23:08:16.880Z,67.90
2022-12-07T23:10:48.963Z,67.90
2022-12-07T23:13:32.834Z,67.80
2022-12-07T23:16:01.423Z,67.90
2022-12-07T23:18:28.361Z,68.00
2022-12-07T23:20:58.265Z,70.00
2022-12-07T23:23:25.824Z,68.00
2022-12-07T23:25:52.946Z,67.90
2022-12-07T23:28:20.452Z,68.10
2022-12-07T23:30:47.286Z,68.00
2022-12-07T23:33:14.195Z,68.10
2022-12-07T23:35:41.028Z,68.00
2022-12-07T23:38:07.835Z,67.90
2022-12-07T23:40:34.666Z,67.80
2022-12-07T23:43:01.538Z,67.90
2022-12-07T23:45:28.332Z,67.90
2022-12-07T23:47:55.123Z,67.70
2022-12-07T23:50:22.021Z,67.80
2022-12-07T23:52:48.877Z,67.80
2022-12-07T23:55:15.760Z,67.80
2022-12-07T23:57:42.655Z,67.90
